createdAt,value
2022-09-13T00:01:19.000Z,284.02
2022-09-13T00:02:46.000Z,283.96
2022-09-13T00:04:52.000Z,283.84
2022-09-13T00:06:18.000Z,283.84
2022-09-13T00:08:25.000Z,283.77
2022-09-13T00:09:51.000Z,283.77
2022-09-13T00:11:57.000Z,283.77
2022-09-13T00:13:24.000Z,283.71
2022-09-13T00:15:30.000Z,283.71
2022-09-13T00:16:56.000Z,283.77
2022-09-13T00:19:02.000Z,283.77
2022-09-13T00:20:29.000Z,283.77
2022-09-13T00:22:35.000Z,283.71
2022-09-13T00:24:01.000Z,283.65
2022-09-13T00:26:08.000Z,283.65
2022-09-13T00:27:34.000Z,283.71
2022-09-13T00:29:40.000Z,283.71
2022-09-13T00:31:07.000Z,283.77
2022-09-13T00:33:13.000Z,283.84
2022-09-13T00:34:39.000Z,283.77
2022-09-13T00:36:45.000Z,283.71
2022-09-13T00:39:37.000Z,283.77
2022-09-13T00:41:03.000Z,283.71
2022-09-13T00:43:09.000Z,283.65
2022-09-13T00:44:36.000Z,283.59
2022-09-13T00:46:42.000Z,283.59
2022-09-13T00:48:08.000Z,283.65
2022-09-13T00:50:14.000Z,283.65
2022-09-13T00:51:41.000Z,283.52
2022-09-13T00:53:47.000Z,283.52
2022-09-13T00:55:14.000Z,283.59
2022-09-13T00:57:20.000Z,283.59
2022-09-13T00:58:46.000Z,283.59
2022-09-13T01:00:53.000Z,283.52
2022-09-13T01:02:19.000Z,283.46
2022-09-13T01:04:25.000Z,283.34
2022-09-13T01:05:52.000Z,283.34
2022-09-13T01:07:58.000Z,283.4
2022-09-13T01:09:24.000Z,283.46
2022-09-13T01:11:31.000Z,283.52
2022-09-13T01:12:57.000Z,283.52
2022-09-13T01:15:03.000Z,283.46
2022-09-13T01:17:54.000Z,283.34
2022-09-13T01:19:21.000Z,283.34
2022-09-13T01:21:27.000Z,283.34
2022-09-13T01:22:53.000Z,283.34
2022-09-13T01:24:59.000Z,283.4
2022-09-13T01:26:26.000Z,283.4
2022-09-13T01:28:32.000Z,283.34
2022-09-13T01:29:58.000Z,283.34
2022-09-13T01:32:05.000Z,283.34
2022-09-13T01:33:31.000Z,283.34
2022-09-13T01:35:37.000Z,283.27
2022-09-13T01:37:04.000Z,283.27
2022-09-13T01:39:10.000Z,283.27
2022-09-13T01:40:37.000Z,283.27
2022-09-13T01:42:43.000Z,283.27
2022-09-13T01:44:09.000Z,283.34
2022-09-13T01:46:15.000Z,283.34
2022-09-13T01:47:42.000Z,283.27
2022-09-13T01:49:48.000Z,283.21
2022-09-13T01:51:15.000Z,283.21
2022-09-13T01:53:21.000Z,283.21
2022-09-13T01:56:13.000Z,283.15
2022-09-13T01:57:39.000Z,283.15
2022-09-13T01:59:45.000Z,283.15
2022-09-13T02:01:12.000Z,283.21
2022-09-13T02:03:18.000Z,283.15
2022-09-13T02:04:45.000Z,283.09
2022-09-13T02:06:51.000Z,283.02
2022-09-13T02:08:17.000Z,283.02
2022-09-13T02:10:23.000Z,283.02
2022-09-13T02:11:50.000Z,283.15
2022-09-13T02:13:56.000Z,283.09
2022-09-13T02:15:22.000Z,283.09
2022-09-13T02:17:28.000Z,283.09
2022-09-13T02:18:55.000Z,283.09
2022-09-13T02:21:01.000Z,283.09
2022-09-13T02:22:27.000Z,283.02
2022-09-13T02:24:34.000Z,282.96
2022-09-13T02:26:00.000Z,282.96
2022-09-13T02:28:06.000Z,282.96
2022-09-13T02:29:33.000Z,283.02
2022-09-13T02:31:39.000Z,282.96
2022-09-13T02:34:30.000Z,282.84
2022-09-13T02:35:56.000Z,282.9
2022-09-13T02:38:02.000Z,282.9
2022-09-13T02:39:29.000Z,282.84
2022-09-13T02:41:35.000Z,282.77
2022-09-13T02:43:01.000Z,282.84
2022-09-13T02:45:08.000Z,282.84
2022-09-13T02:46:34.000Z,282.9
2022-09-13T02:48:40.000Z,282.84
2022-09-13T02:50:07.000Z,282.9
2022-09-13T02:52:13.000Z,282.9
2022-09-13T02:53:39.000Z,282.9
2022-09-13T02:55:45.000Z,282.84
2022-09-13T02:57:12.000Z,282.84
2022-09-13T02:59:18.000Z,282.9
2022-09-13T03:00:45.000Z,282.9
2022-09-13T03:02:51.000Z,282.9
2022-09-13T03:04:17.000Z,282.9
2022-09-13T03:06:24.000Z,282.9
2022-09-13T03:07:50.000Z,282.9
2022-09-13T03:09:56.000Z,282.84
2022-09-13T03:12:47.000Z,282.9
2022-09-13T03:14:14.000Z,282.9
2022-09-13T03:16:20.000Z,282.84
2022-09-13T03:17:47.000Z,282.84
2022-09-13T03:19:53.000Z,282.9
2022-09-13T03:21:19.000Z,282.9
2022-09-13T03:23:25.000Z,282.9
2022-09-13T03:24:52.000Z,282.84
2022-09-13T03:26:58.000Z,282.96
2022-09-13T03:28:24.000Z,283.02
2022-09-13T03:30:31.000Z,283.09
2022-09-13T03:31:57.000Z,283.15
2022-09-13T03:34:03.000Z,283.09
2022-09-13T03:35:30.000Z,283.15
2022-09-13T03:37:36.000Z,283.09
2022-09-13T03:39:02.000Z,283.02
2022-09-13T03:41:08.000Z,283.09
2022-09-13T03:42:35.000Z,283.02
2022-09-13T03:44:41.000Z,283.15
2022-09-13T03:46:07.000Z,283.15
2022-09-13T03:48:14.000Z,283.21
2022-09-13T03:51:05.000Z,283.27
2022-09-13T03:52:31.000Z,283.27
2022-09-13T03:54:37.000Z,283.27
2022-09-13T03:56:04.000Z,283.21
2022-09-13T03:58:10.000Z,283.27
2022-09-13T03:59:36.000Z,283.27
2022-09-13T04:01:43.000Z,283.27
2022-09-13T04:03:09.000Z,283.27
2022-09-13T04:05:15.000Z,283.34
2022-09-13T04:06:42.000Z,283.34
2022-09-13T04:08:48.000Z,283.34
2022-09-13T04:10:14.000Z,283.34
2022-09-13T04:12:20.000Z,283.34
2022-09-13T04:13:47.000Z,283.34
2022-09-13T04:15:53.000Z,283.34
2022-09-13T04:17:20.000Z,283.34
2022-09-13T04:19:26.000Z,283.34
2022-09-13T04:20:52.000Z,283.34
2022-09-13T04:22:58.000Z,283.34
2022-09-13T04:24:25.000Z,283.34
2022-09-13T04:26:31.000Z,283.34
2022-09-13T04:29:22.000Z,283.4
2022-09-13T04:30:49.000Z,283.46
2022-09-13T04:32:55.000Z,283.46
2022-09-13T04:34:21.000Z,283.46
2022-09-13T04:36:27.000Z,283.34
2022-09-13T04:37:54.000Z,283.34
2022-09-13T04:40:00.000Z,283.34
2022-09-13T04:41:27.000Z,283.34
2022-09-13T04:43:33.000Z,283.46
2022-09-13T04:44:59.000Z,283.46
2022-09-13T04:47:05.000Z,283.52
2022-09-13T04:48:32.000Z,283.52
2022-09-13T04:50:38.000Z,283.52
2022-09-13T04:52:04.000Z,283.52
2022-09-13T04:54:10.000Z,283.52
2022-09-13T04:55:40.000Z,283.52
2022-09-13T04:57:46.000Z,283.59
2022-09-13T04:59:13.000Z,283.59
2022-09-13T05:01:19.000Z,283.59
2022-09-13T05:02:52.000Z,283.59
2022-09-13T05:04:58.000Z,283.59
2022-09-13T05:07:49.000Z,283.59
2022-09-13T05:09:16.000Z,283.65
2022-09-13T05:11:22.000Z,283.59
2022-09-13T05:12:48.000Z,283.59
2022-09-13T05:14:54.000Z,283.65
2022-09-13T05:16:21.000Z,283.65
2022-09-13T05:18:27.000Z,283.71
2022-09-13T05:19:53.000Z,283.71
2022-09-13T05:21:59.000Z,283.77
2022-09-13T05:23:26.000Z,283.77
2022-09-13T05:25:32.000Z,283.84
2022-09-13T05:26:59.000Z,283.84
2022-09-13T05:29:05.000Z,283.9
2022-09-13T05:30:31.000Z,283.9
2022-09-13T05:32:37.000Z,283.9
2022-09-13T05:34:04.000Z,283.9
2022-09-13T05:36:10.000Z,283.96
2022-09-13T05:37:36.000Z,283.96
2022-09-13T05:39:43.000Z,283.96
2022-09-13T05:41:35.000Z,284.02
2022-09-13T05:43:41.000Z,284.02
2022-09-13T05:46:32.000Z,284.15
2022-09-13T05:47:59.000Z,284.15
2022-09-13T05:50:05.000Z,284.15
2022-09-13T05:51:47.000Z,284.21
2022-09-13T05:53:53.000Z,284.21
2022-09-13T05:55:20.000Z,284.27
2022-09-13T05:57:26.000Z,284.27
2022-09-13T05:58:52.000Z,284.27
2022-09-13T06:00:58.000Z,284.34
2022-09-13T06:02:25.000Z,284.34
2022-09-13T06:04:31.000Z,284.4
2022-09-13T06:05:58.000Z,284.4
2022-09-13T06:08:04.000Z,284.4
2022-09-13T06:09:30.000Z,284.46
2022-09-13T06:11:36.000Z,284.46
2022-09-13T06:13:03.000Z,284.46
2022-09-13T06:15:09.000Z,284.46
2022-09-13T06:16:36.000Z,284.52
2022-09-13T06:18:42.000Z,284.52
2022-09-13T06:20:08.000Z,284.52
2022-09-13T06:22:14.000Z,284.65
2022-09-13T06:25:05.000Z,284.71
2022-09-13T06:26:32.000Z,284.71
2022-09-13T06:28:38.000Z,284.77
2022-09-13T06:30:05.000Z,284.84
2022-09-13T06:32:11.000Z,284.84
2022-09-13T06:33:37.000Z,284.84
2022-09-13T06:35:43.000Z,284.9
2022-09-13T06:37:10.000Z,284.9
2022-09-13T06:39:16.000Z,284.96
2022-09-13T06:40:43.000Z,285.02
2022-09-13T06:42:49.000Z,285.02
2022-09-13T06:44:15.000Z,285.09
2022-09-13T06:46:21.000Z,285.15
2022-09-13T06:47:49.000Z,285.21
2022-09-13T06:49:55.000Z,285.21
2022-09-13T06:51:22.000Z,285.27
2022-09-13T06:53:28.000Z,285.4
2022-09-13T06:54:55.000Z,285.4
2022-09-13T06:57:01.000Z,285.46
2022-09-13T06:58:27.000Z,285.46
2022-09-13T07:00:33.000Z,285.52
2022-09-13T07:03:25.000Z,285.65
2022-09-13T07:04:51.000Z,285.65
2022-09-13T07:06:57.000Z,285.65
2022-09-13T07:08:24.000Z,285.65
2022-09-13T07:10:30.000Z,285.65
2022-09-13T07:11:56.000Z,285.71
2022-09-13T07:14:02.000Z,285.77
2022-09-13T07:15:29.000Z,285.84
2022-09-13T07:17:35.000Z,285.84
2022-09-13T07:19:02.000Z,285.84
2022-09-13T07:21:08.000Z,285.9
2022-09-13T07:22:34.000Z,285.96
2022-09-13T07:24:40.000Z,285.9
2022-09-13T07:26:07.000Z,285.96
2022-09-13T07:28:13.000Z,286.02
2022-09-13T07:29:39.000Z,286.02
2022-09-13T07:31:45.000Z,286.09
2022-09-13T07:33:12.000Z,286.15
2022-09-13T07:35:18.000Z,286.21
2022-09-13T07:36:45.000Z,286.21
2022-09-13T07:38:51.000Z,286.21
2022-09-13T07:41:42.000Z,286.27
2022-09-13T07:43:08.000Z,286.34
2022-09-13T07:45:15.000Z,286.34
2022-09-13T07:46:41.000Z,286.4
2022-09-13T07:48:47.000Z,286.46
2022-09-13T07:50:14.000Z,286.46
2022-09-13T07:52:20.000Z,286.52
2022-09-13T07:53:47.000Z,286.59
2022-09-13T07:55:59.000Z,286.65
2022-09-13T07:57:25.000Z,286.71
2022-09-13T07:59:31.000Z,286.77
2022-09-13T08:00:58.000Z,286.77
2022-09-13T08:03:04.000Z,286.77
2022-09-13T08:04:30.000Z,286.84
2022-09-13T08:06:40.000Z,286.9
2022-09-13T08:08:07.000Z,286.9
2022-09-13T08:10:13.000Z,286.96
2022-09-13T08:11:39.000Z,286.96
2022-09-13T08:13:45.000Z,286.96
2022-09-13T08:15:12.000Z,287.02
2022-09-13T08:17:18.000Z,287.02
2022-09-13T08:20:09.000Z,287.02
2022-09-13T08:21:36.000Z,287.09
2022-09-13T08:23:42.000Z,287.15
2022-09-13T08:25:09.000Z,287.21
2022-09-13T08:27:15.000Z,287.21
2022-09-13T08:28:41.000Z,287.21
2022-09-13T08:30:47.000Z,287.27
2022-09-13T08:32:14.000Z,287.27
2022-09-13T08:34:20.000Z,287.4
2022-09-13T08:35:47.000Z,287.46
2022-09-13T08:37:53.000Z,287.52
2022-09-13T08:39:20.000Z,287.59
2022-09-13T08:41:26.000Z,287.65
2022-09-13T08:42:52.000Z,287.71
2022-09-13T08:44:59.000Z,287.84
2022-09-13T08:46:25.000Z,287.84
2022-09-13T08:48:31.000Z,287.9
2022-09-13T08:49:58.000Z,287.96
2022-09-13T08:52:04.000Z,288.02
2022-09-13T08:53:31.000Z,288.02
2022-09-13T08:55:37.000Z,288.15
2022-09-13T08:58:28.000Z,288.15
2022-09-13T08:59:54.000Z,288.21
2022-09-13T09:02:01.000Z,288.34
2022-09-13T09:03:27.000Z,288.4
2022-09-13T09:05:33.000Z,288.52
2022-09-13T09:07:00.000Z,288.59
2022-09-13T09:09:06.000Z,288.71
2022-09-13T09:10:32.000Z,288.77
2022-09-13T09:12:38.000Z,288.9
2022-09-13T09:14:05.000Z,288.96
2022-09-13T09:16:11.000Z,289.02
2022-09-13T09:17:37.000Z,289.09
2022-09-13T09:19:44.000Z,289.21
2022-09-13T09:21:10.000Z,289.34
2022-09-13T09:23:16.000Z,289.59
2022-09-13T09:24:46.000Z,289.71
2022-09-13T09:26:52.000Z,289.84
2022-09-13T09:28:18.000Z,289.9
2022-09-13T09:30:24.000Z,289.9
2022-09-13T09:31:51.000Z,290.02
2022-09-13T09:33:57.000Z,290.09
2022-09-13T09:36:48.000Z,290.21
2022-09-13T09:38:15.000Z,290.27
2022-09-13T09:40:21.000Z,290.4
2022-09-13T09:41:48.000Z,290.52
2022-09-13T09:43:55.000Z,290.59
2022-09-13T09:45:21.000Z,290.59
2022-09-13T09:47:27.000Z,290.71
2022-09-13T09:48:54.000Z,290.77
2022-09-13T09:51:00.000Z,290.96
2022-09-13T09:52:26.000Z,291.15
2022-09-13T09:54:32.000Z,291.34
2022-09-13T09:55:59.000Z,291.4
2022-09-13T09:58:05.000Z,291.46
2022-09-13T09:59:32.000Z,291.46
2022-09-13T10:01:38.000Z,291.59
2022-09-13T10:03:04.000Z,291.9
2022-09-13T10:05:10.000Z,292.09
2022-09-13T10:06:37.000Z,292.21
2022-09-13T10:08:43.000Z,292.21
2022-09-13T10:10:09.000Z,292.27
2022-09-13T10:12:16.000Z,292.4
2022-09-13T10:15:07.000Z,292.59
2022-09-13T10:16:33.000Z,292.65
2022-09-13T10:18:40.000Z,292.59
2022-09-13T10:20:09.000Z,292.65
2022-09-13T10:22:15.000Z,292.71
2022-09-13T10:23:42.000Z,292.71
2022-09-13T10:25:48.000Z,292.77
2022-09-13T10:27:14.000Z,292.9
2022-09-13T10:29:21.000Z,292.96
2022-09-13T10:30:47.000Z,292.96
2022-09-13T10:32:53.000Z,293.09
2022-09-13T10:34:20.000Z,293.15
2022-09-13T10:36:26.000Z,293.27
2022-09-13T10:38:16.000Z,293.34
2022-09-13T10:40:22.000Z,293.4
2022-09-13T10:41:49.000Z,293.4
2022-09-13T10:43:55.000Z,293.46
2022-09-13T10:45:22.000Z,293.4
2022-09-13T10:47:28.000Z,293.52
2022-09-13T10:48:54.000Z,293.52
2022-09-13T10:51:00.000Z,293.52
2022-09-13T10:53:52.000Z,293.59
2022-09-13T10:55:19.000Z,293.65
2022-09-13T10:57:25.000Z,293.71
2022-09-13T10:58:51.000Z,293.71
2022-09-13T11:00:57.000Z,293.77
2022-09-13T11:02:24.000Z,293.84
2022-09-13T11:04:30.000Z,293.84
2022-09-13T11:05:57.000Z,293.84
2022-09-13T11:08:03.000Z,293.9
2022-09-13T11:09:29.000Z,293.96
2022-09-13T11:11:35.000Z,294.02
2022-09-13T11:13:02.000Z,294.15
2022-09-13T11:15:08.000Z,294.15
2022-09-13T11:16:35.000Z,294.15
2022-09-13T11:18:41.000Z,294.27
2022-09-13T11:20:07.000Z,294.34
2022-09-13T11:22:14.000Z,294.34
2022-09-13T11:23:41.000Z,294.34
2022-09-13T11:25:47.000Z,294.27
2022-09-13T11:27:13.000Z,294.27
2022-09-13T11:29:19.000Z,294.4
2022-09-13T11:32:10.000Z,294.65
2022-09-13T11:33:37.000Z,294.71
2022-09-13T11:35:43.000Z,294.77
2022-09-13T11:37:09.000Z,294.77
2022-09-13T11:39:16.000Z,294.84
2022-09-13T11:40:42.000Z,294.96
2022-09-13T11:42:48.000Z,295.15
2022-09-13T11:44:15.000Z,295.21
2022-09-13T11:46:21.000Z,295.34
2022-09-13T11:47:47.000Z,295.4
2022-09-13T11:49:54.000Z,295.59
2022-09-13T11:51:20.000Z,295.77
2022-09-13T11:53:26.000Z,295.77
2022-09-13T11:54:54.000Z,295.9
2022-09-13T11:57:01.000Z,296.15
2022-09-13T11:58:27.000Z,296.27
2022-09-13T12:00:33.000Z,296.27
2022-09-13T12:02:00.000Z,296.4
2022-09-13T12:04:06.000Z,296.71
2022-09-13T12:05:33.000Z,296.77
2022-09-13T12:07:39.000Z,296.84
2022-09-13T12:10:30.000Z,296.77
2022-09-13T12:11:57.000Z,296.84
2022-09-13T12:14:03.000Z,296.96
2022-09-13T12:15:30.000Z,296.84
2022-09-13T12:17:36.000Z,296.84
2022-09-13T12:19:02.000Z,296.9
2022-09-13T12:21:08.000Z,297.09
2022-09-13T12:22:35.000Z,297.09
2022-09-13T12:24:41.000Z,297.02
2022-09-13T12:26:08.000Z,297.09
2022-09-13T12:28:14.000Z,296.96
2022-09-13T12:29:40.000Z,296.96
2022-09-13T12:31:46.000Z,297.09
2022-09-13T12:33:13.000Z,297.09
2022-09-13T12:35:19.000Z,297.15
2022-09-13T12:36:46.000Z,297.09
2022-09-13T12:38:52.000Z,297.15
2022-09-13T12:40:18.000Z,297.02
2022-09-13T12:42:25.000Z,297.21
2022-09-13T12:43:51.000Z,297.09
2022-09-13T12:45:57.000Z,297.02
2022-09-13T12:48:49.000Z,297.09
2022-09-13T12:50:15.000Z,297.15
2022-09-13T12:52:47.000Z,297.02
2022-09-13T12:54:14.000Z,297.02
2022-09-13T12:56:20.000Z,296.96
2022-09-13T12:57:47.000Z,296.96
2022-09-13T12:59:53.000Z,296.96
2022-09-13T13:01:19.000Z,296.96
2022-09-13T13:03:26.000Z,296.96
2022-09-13T13:04:52.000Z,296.96
2022-09-13T13:06:58.000Z,296.96
2022-09-13T13:08:25.000Z,297.02
2022-09-13T13:10:31.000Z,297.02
2022-09-13T13:11:58.000Z,297.09
2022-09-13T13:14:04.000Z,296.96
2022-09-13T13:15:30.000Z,297.09
2022-09-13T13:17:36.000Z,297.21
2022-09-13T13:19:03.000Z,297.34
2022-09-13T13:21:09.000Z,297.21
2022-09-13T13:22:36.000Z,297.27
2022-09-13T13:24:42.000Z,297.46
2022-09-13T13:27:33.000Z,297.27
2022-09-13T13:29:00.000Z,297.21
2022-09-13T13:31:06.000Z,297.21
2022-09-13T13:32:32.000Z,297.27
2022-09-13T13:34:39.000Z,297.09
2022-09-13T13:36:05.000Z,297.09
2022-09-13T13:38:11.000Z,296.96
2022-09-13T13:39:38.000Z,296.96
2022-09-13T13:41:44.000Z,296.9
2022-09-13T13:43:11.000Z,296.84
2022-09-13T13:45:17.000Z,296.9
2022-09-13T13:46:43.000Z,296.9
2022-09-13T13:48:49.000Z,296.9
2022-09-13T13:50:16.000Z,296.96
2022-09-13T13:52:22.000Z,297.02
2022-09-13T13:53:49.000Z,296.84
2022-09-13T13:55:55.000Z,296.9
2022-09-13T13:57:21.000Z,296.71
2022-09-13T13:59:27.000Z,296.59
2022-09-13T14:00:54.000Z,296.71
2022-09-13T14:03:01.000Z,296.77
2022-09-13T14:05:52.000Z,296.71
2022-09-13T14:07:18.000Z,296.71
2022-09-13T14:09:25.000Z,296.77
2022-09-13T14:10:57.000Z,296.9
2022-09-13T14:13:04.000Z,296.77
2022-09-13T14:14:30.000Z,296.77
2022-09-13T14:16:36.000Z,296.84
2022-09-13T14:18:03.000Z,296.9
2022-09-13T14:20:09.000Z,297.09
2022-09-13T14:21:36.000Z,297.09
2022-09-13T14:23:42.000Z,297.21
2022-09-13T14:25:09.000Z,297.15
2022-09-13T14:27:15.000Z,297.15
2022-09-13T14:28:41.000Z,297.21
2022-09-13T14:30:47.000Z,297.09
2022-09-13T14:32:14.000Z,296.9
2022-09-13T14:34:20.000Z,297.02
2022-09-13T14:35:47.000Z,297.09
2022-09-13T14:37:53.000Z,297.4
2022-09-13T14:39:19.000Z,297.52
2022-09-13T14:41:26.000Z,297.59
2022-09-13T14:44:17.000Z,297.59
2022-09-13T14:45:52.000Z,297.59
2022-09-13T14:47:59.000Z,297.34
2022-09-13T14:49:25.000Z,297.27
2022-09-13T14:51:31.000Z,297.15
2022-09-13T14:52:58.000Z,297.15
2022-09-13T14:55:04.000Z,297.4
2022-09-13T14:56:30.000Z,297.59
2022-09-13T14:58:37.000Z,297.77
2022-09-13T15:00:03.000Z,297.59
2022-09-13T15:02:09.000Z,297.65
2022-09-13T15:03:36.000Z,297.46
2022-09-13T15:05:42.000Z,297.52
2022-09-13T15:07:09.000Z,297.59
2022-09-13T15:09:15.000Z,297.34
2022-09-13T15:10:41.000Z,297.34
2022-09-13T15:12:47.000Z,297.46
2022-09-13T15:14:14.000Z,297.4
2022-09-13T15:16:20.000Z,297.34
2022-09-13T15:17:47.000Z,297.15
2022-09-13T15:19:53.000Z,297.15
2022-09-13T15:22:45.000Z,297.09
2022-09-13T15:24:11.000Z,297.09
2022-09-13T15:26:17.000Z,297.09
2022-09-13T15:27:44.000Z,297.09
2022-09-13T15:29:50.000Z,297.02
2022-09-13T15:31:16.000Z,297.02
2022-09-13T15:33:23.000Z,297.02
2022-09-13T15:34:49.000Z,297.02
2022-09-13T15:36:55.000Z,296.84
2022-09-13T15:38:22.000Z,296.77
2022-09-13T15:40:28.000Z,296.65
2022-09-13T15:41:55.000Z,296.59
2022-09-13T15:44:01.000Z,296.52
2022-09-13T15:45:27.000Z,296.4
2022-09-13T15:47:34.000Z,296.27
2022-09-13T15:49:00.000Z,296.27
2022-09-13T15:51:06.000Z,296.15
2022-09-13T15:52:33.000Z,296.09
2022-09-13T15:54:39.000Z,296.09
2022-09-13T15:56:05.000Z,296.09
2022-09-13T15:58:12.000Z,295.96
2022-09-13T16:01:03.000Z,296.15
2022-09-13T16:02:29.000Z,296.02
2022-09-13T16:04:36.000Z,295.96
2022-09-13T16:06:02.000Z,296.02
2022-09-13T16:08:08.000Z,296.09
2022-09-13T16:09:35.000Z,296.15
2022-09-13T16:11:41.000Z,296.15
2022-09-13T16:13:07.000Z,296.15
2022-09-13T16:15:14.000Z,296.09
2022-09-13T16:16:40.000Z,296.09
2022-09-13T16:18:46.000Z,295.9
2022-09-13T16:20:13.000Z,295.96
2022-09-13T16:22:19.000Z,295.96
2022-09-13T16:23:46.000Z,295.84
2022-09-13T16:25:52.000Z,295.71
2022-09-13T16:27:19.000Z,295.71
2022-09-13T16:29:25.000Z,295.59
2022-09-13T16:30:51.000Z,295.4
2022-09-13T16:32:57.000Z,295.34
2022-09-13T16:34:24.000Z,295.34
2022-09-13T16:36:30.000Z,295.27
2022-09-13T16:39:22.000Z,295.09
2022-09-13T16:40:48.000Z,295.09
2022-09-13T16:42:55.000Z,294.96
2022-09-13T16:44:21.000Z,294.84
2022-09-13T16:46:27.000Z,294.84
2022-09-13T16:47:54.000Z,294.77
2022-09-13T16:50:00.000Z,294.71
2022-09-13T16:51:26.000Z,294.59
2022-09-13T16:53:33.000Z,294.65
2022-09-13T16:54:59.000Z,294.52
2022-09-13T16:57:05.000Z,294.46
2022-09-13T16:58:32.000Z,294.4
2022-09-13T17:00:38.000Z,294.27
2022-09-13T17:02:04.000Z,294.27
2022-09-13T17:04:11.000Z,294.27
2022-09-13T17:05:37.000Z,294.15
2022-09-13T17:07:44.000Z,294.15
2022-09-13T17:09:10.000Z,294.09
2022-09-13T17:11:17.000Z,294.02
2022-09-13T17:12:43.000Z,293.96
2022-09-13T17:14:49.000Z,293.84
2022-09-13T17:17:41.000Z,293.77
2022-09-13T17:19:07.000Z,293.77
2022-09-13T17:21:13.000Z,293.65
2022-09-13T17:22:40.000Z,293.65
2022-09-13T17:24:46.000Z,293.59
2022-09-13T17:26:12.000Z,293.59
2022-09-13T17:28:19.000Z,293.52
2022-09-13T17:29:45.000Z,293.52
2022-09-13T17:31:51.000Z,293.46
2022-09-13T17:33:18.000Z,293.4
2022-09-13T17:35:24.000Z,293.34
2022-09-13T17:36:51.000Z,293.34
2022-09-13T17:38:57.000Z,293.27
2022-09-13T17:40:23.000Z,293.21
2022-09-13T17:42:30.000Z,293.21
2022-09-13T17:43:56.000Z,293.21
2022-09-13T17:46:03.000Z,293.21
2022-09-13T17:47:29.000Z,293.21
2022-09-13T17:49:35.000Z,293.21
2022-09-13T17:51:02.000Z,293.15
2022-09-13T17:53:08.000Z,293.09
2022-09-13T17:55:59.000Z,293.02
2022-09-13T17:57:25.000Z,292.96
2022-09-13T17:59:31.000Z,292.96
2022-09-13T18:00:58.000Z,292.96
2022-09-13T18:03:04.000Z,292.96
2022-09-13T18:04:31.000Z,292.9
2022-09-13T18:06:37.000Z,292.9
2022-09-13T18:08:03.000Z,292.9
2022-09-13T18:10:09.000Z,292.84
2022-09-13T18:12:05.000Z,292.84
2022-09-13T18:14:11.000Z,292.9
2022-09-13T18:15:37.000Z,292.9
2022-09-13T18:17:43.000Z,292.9
2022-09-13T18:19:10.000Z,292.84
2022-09-13T18:21:16.000Z,292.77
2022-09-13T18:22:43.000Z,292.84
2022-09-13T18:24:49.000Z,292.84
2022-09-13T18:26:15.000Z,292.84
2022-09-13T18:28:22.000Z,292.84
2022-09-13T18:29:48.000Z,292.84
2022-09-13T18:31:54.000Z,292.65
2022-09-13T18:34:45.000Z,292.65
2022-09-13T18:36:12.000Z,292.59
2022-09-13T18:38:18.000Z,292.59
2022-09-13T18:39:45.000Z,292.59
2022-09-13T18:41:51.000Z,292.59
2022-09-13T18:43:17.000Z,292.59
2022-09-13T18:45:23.000Z,292.59
2022-09-13T18:46:50.000Z,292.71
2022-09-13T18:48:56.000Z,292.65
2022-09-13T18:50:23.000Z,292.65
2022-09-13T18:52:29.000Z,292.46
2022-09-13T18:53:55.000Z,292.46
2022-09-13T18:56:01.000Z,292.4
2022-09-13T18:57:28.000Z,292.46
2022-09-13T18:59:34.000Z,292.34
2022-09-13T19:01:00.000Z,292.34
2022-09-13T19:03:07.000Z,292.27
2022-09-13T19:04:37.000Z,292.27
2022-09-13T19:06:43.000Z,292.15
2022-09-13T19:08:10.000Z,292.15
2022-09-13T19:10:16.000Z,292.09
2022-09-13T19:13:07.000Z,291.9
2022-09-13T19:14:33.000Z,291.96
2022-09-13T19:16:40.000Z,292.02
2022-09-13T19:18:06.000Z,292.02
2022-09-13T19:20:12.000Z,291.96
2022-09-13T19:21:39.000Z,291.9
2022-09-13T19:23:45.000Z,291.9
2022-09-13T19:25:24.000Z,291.84
2022-09-13T19:27:30.000Z,291.84
2022-09-13T19:28:56.000Z,291.71
2022-09-13T19:31:03.000Z,291.59
2022-09-13T19:32:29.000Z,291.59
2022-09-13T19:34:35.000Z,291.52
2022-09-13T19:36:02.000Z,291.46
2022-09-13T19:38:08.000Z,291.34
2022-09-13T19:39:35.000Z,291.27
2022-09-13T19:41:41.000Z,291.21
2022-09-13T19:43:07.000Z,291.27
2022-09-13T19:45:13.000Z,291.09
2022-09-13T19:46:40.000Z,291.09
2022-09-13T19:48:46.000Z,290.96
2022-09-13T19:51:38.000Z,291.15
2022-09-13T19:53:04.000Z,291.09
2022-09-13T19:55:11.000Z,291.09
2022-09-13T19:56:37.000Z,291.02
2022-09-13T19:58:43.000Z,290.9
2022-09-13T20:00:10.000Z,291.02
2022-09-13T20:02:16.000Z,291.02
2022-09-13T20:03:42.000Z,291.09
2022-09-13T20:05:48.000Z,291.15
2022-09-13T20:07:15.000Z,291.15
2022-09-13T20:09:21.000Z,291.15
2022-09-13T20:10:47.000Z,291.15
2022-09-13T20:12:54.000Z,291.15
2022-09-13T20:14:20.000Z,291.15
2022-09-13T20:16:26.000Z,291.15
2022-09-13T20:17:53.000Z,291.15
2022-09-13T20:19:59.000Z,291.09
2022-09-13T20:21:25.000Z,291.15
2022-09-13T20:23:31.000Z,291.09
2022-09-13T20:24:58.000Z,291.09
2022-09-13T20:27:04.000Z,291.09
2022-09-13T20:29:55.000Z,291.21
2022-09-13T20:31:22.000Z,291.21
2022-09-13T20:33:28.000Z,291.21
2022-09-13T20:34:55.000Z,291.21
2022-09-13T20:37:01.000Z,291.27
2022-09-13T20:38:27.000Z,291.21
2022-09-13T20:40:33.000Z,291.34
2022-09-13T20:42:00.000Z,291.09
2022-09-13T20:44:06.000Z,291.15
2022-09-13T20:45:32.000Z,291.21
2022-09-13T20:47:38.000Z,291.15
2022-09-13T20:49:05.000Z,290.96
2022-09-13T20:51:11.000Z,290.84
2022-09-13T20:52:37.000Z,290.9
2022-09-13T20:54:44.000Z,290.9
2022-09-13T20:56:10.000Z,290.77
2022-09-13T20:58:17.000Z,290.77
2022-09-13T20:59:43.000Z,290.77
2022-09-13T21:01:49.000Z,290.9
2022-09-13T21:03:16.000Z,290.9
2022-09-13T21:05:22.000Z,290.84
2022-09-13T21:08:13.000Z,290.84
2022-09-13T21:09:40.000Z,290.77
2022-09-13T21:11:46.000Z,290.71
2022-09-13T21:13:12.000Z,290.65
2022-09-13T21:15:18.000Z,290.59
2022-09-13T21:16:45.000Z,290.59
2022-09-13T21:18:51.000Z,290.59
2022-09-13T21:20:17.000Z,290.71
2022-09-13T21:22:24.000Z,290.65
2022-09-13T21:23:50.000Z,290.65
2022-09-13T21:25:56.000Z,290.46
2022-09-13T21:27:23.000Z,290.52
2022-09-13T21:29:29.000Z,290.52
2022-09-13T21:30:55.000Z,290.52
2022-09-13T21:33:01.000Z,290.52
2022-09-13T21:34:28.000Z,290.59
2022-09-13T21:36:34.000Z,290.71
2022-09-13T21:38:00.000Z,290.71
2022-09-13T21:40:07.000Z,290.71
2022-09-13T21:41:33.000Z,290.71
2022-09-13T21:43:39.000Z,290.59
2022-09-13T21:46:30.000Z,290.65
2022-09-13T21:47:57.000Z,290.65
2022-09-13T21:50:03.000Z,290.59
2022-09-13T21:51:30.000Z,290.59
2022-09-13T21:53:36.000Z,290.59
2022-09-13T21:55:02.000Z,290.59
2022-09-13T21:57:08.000Z,290.65
2022-09-13T21:58:35.000Z,290.71
2022-09-13T22:00:41.000Z,290.71
2022-09-13T22:02:07.000Z,290.71
2022-09-13T22:04:14.000Z,290.71
2022-09-13T22:05:40.000Z,290.71
2022-09-13T22:07:46.000Z,290.65
2022-09-13T22:09:13.000Z,290.71
2022-09-13T22:11:19.000Z,290.59
2022-09-13T22:12:46.000Z,290.52
2022-09-13T22:14:52.000Z,290.52
2022-09-13T22:16:18.000Z,290.52
2022-09-13T22:18:25.000Z,290.52
2022-09-13T22:19:51.000Z,290.52
2022-09-13T22:21:57.000Z,290.4
2022-09-13T22:24:48.000Z,290.34
2022-09-13T22:26:15.000Z,290.4
2022-09-13T22:28:21.000Z,290.4
2022-09-13T22:29:47.000Z,290.4
2022-09-13T22:31:54.000Z,290.4
2022-09-13T22:33:20.000Z,290.34
2022-09-13T22:35:26.000Z,290.27
2022-09-13T22:36:53.000Z,290.27
2022-09-13T22:38:59.000Z,290.34
2022-09-13T22:40:25.000Z,290.4
2022-09-13T22:42:32.000Z,290.34
2022-09-13T22:43:58.000Z,290.4
2022-09-13T22:46:04.000Z,290.4
2022-09-13T22:47:31.000Z,290.4
2022-09-13T22:49:37.000Z,290.4
2022-09-13T22:51:04.000Z,290.46
2022-09-13T22:53:10.000Z,290.4